createdAt,value
2022-10-19T00:25:31.303Z,100
2022-10-19T00:54:27.046Z,100
2022-10-19T01:23:14.979Z,100
2022-10-19T01:52:14.065Z,100
2022-10-19T02:21:09.360Z,100
2022-10-19T02:49:59.795Z,100
2022-10-19T03:18:55.262Z,100
2022-10-19T03:47:57.245Z,100
2022-10-19T04:16:56.712Z,100
2022-10-19T04:45:56.860Z,100
2022-10-19T05:15:00.658Z,100
2022-10-19T05:43:44.769Z,100
2022-10-19T06:12:42.073Z,100
2022-10-19T06:41:31.996Z,100
2022-10-19T07:10:23.384Z,100
2022-10-19T07:39:28.625Z,100
2022-10-19T08:08:22.540Z,100
2022-10-19T08:36:51.391Z,100
2022-10-19T09:05:10.040Z,100
2022-10-19T09:33:32.633Z,100
2022-10-19T10:01:57.069Z,100
2022-10-19T10:30:18.967Z,100
2022-10-19T10:58:37.241Z,100
2022-10-19T11:27:05.917Z,99.58
2022-10-19T11:55:33.582Z,86.63
2022-10-19T12:23:31.902Z,88.93
2022-10-19T12:52:02.138Z,84.78
2022-10-19T13:20:25.210Z,83.25
2022-10-19T13:48:48.633Z,82.42
2022-10-19T14:17:13.680Z,79.13
2022-10-19T14:45:29.742Z,78.59
2022-10-19T15:13:46.510Z,72.5
2022-10-19T15:42:06.130Z,73.98
2022-10-19T16:10:20.314Z,76.3
2022-10-19T16:39:05.227Z,77.25
2022-10-19T17:07:56.761Z,80.86
2022-10-19T17:36:50.838Z,82.22
2022-10-19T18:05:30.855Z,88.62
2022-10-19T18:34:13.813Z,96.86
2022-10-19T19:03:14.276Z,96.23
2022-10-19T19:31:58.903Z,100
2022-10-19T20:01:12.342Z,100
2022-10-19T20:29:33.563Z,100
2022-10-19T20:57:50.585Z,100
2022-10-19T21:26:12.679Z,100
2022-10-19T21:54:26.802Z,100
2022-10-19T22:23:20.347Z,100
2022-10-19T22:52:24.104Z,100
2022-10-19T23:21:29.566Z,100
2022-10-19T23:50:22.627Z,100
